Wetterdaten: Woche 01.08.11 - 07.08.11 (KW31)
Datum Zeit Temp. A. Feuchte A. Luftdruck Regen Wind Richtung Taupunkt Windchill Windben
01.08.2011 00:00 15,9 C 79 % 1014,1 hPa 0,0 l/m 2,1 km/h N-NW 12,3 C 15,9 C 10,9 km/h
01.08.2011 01:00 15,8 C 80 % 1014,0 hPa 0,0 l/m 2,3 km/h W 12,4 C 15,8 C 9,7 km/h
01.08.2011 02:00 15,7 C 81 % 1013,9 hPa 0,0 l/m 1,0 km/h SO 12,4 C 15,7 C 7,6 km/h
01.08.2011 03:00 15,7 C 81 % 1013,6 hPa 0,0 l/m 1,6 km/h N-NW 12,4 C 15,7 C 11,7 km/h
01.08.2011 04:00 15,5 C 81 % 1013,6 hPa 0,0 l/m 1,6 km/h N-NW 12,2 C 15,5 C 6,8 km/h
01.08.2011 05:00 15,3 C 81 % 1013,8 hPa 0,0 l/m 1,1 km/h N-NW 12,1 C 15,3 C 5,6 km/h
01.08.2011 06:00 15,3 C 82 % 1014,1 hPa 0,0 l/m 1,4 km/h N-NW 12,2 C 15,3 C 7,6 km/h
01.08.2011 07:00 15,6 C 82 % 1014,4 hPa 0,0 l/m 1,7 km/h S-SW 12,6 C 15,6 C 8,4 km/h
01.08.2011 08:00 16,1 C 82 % 1014,7 hPa 0,0 l/m 1,7 km/h S 13,0 C 16,1 C 7,2 km/h
01.08.2011 09:00 17,1 C 79 % 1014,7 hPa 0,0 l/m 2,3 km/h SW 13,3 C 17,1 C 12,1 km/h
01.08.2011 10:00 18,4 C 74 % 1014,7 hPa 0,0 l/m 3,5 km/h N-NW 13,8 C 18,4 C 13,7 km/h
01.08.2011 11:00 19,4 C 71 % 1014,8 hPa 0,0 l/m 3,6 km/h N-NW 14,0 C 19,4 C 11,7 km/h
01.08.2011 12:00 19,0 C 75 % 1014,9 hPa 0,3 l/m 2,6 km/h N 14,5 C 19,0 C 11,3 km/h
01.08.2011 13:00 18,1 C 80 % 1015,0 hPa 2,1 l/m 0,5 km/h N 14,6 C 18,1 C 3,6 km/h
01.08.2011 14:00 17,7 C 81 % 1014,9 hPa 1,6 l/m 0,1 km/h N 14,4 C 17,7 C 2,8 km/h
01.08.2011 15:00 17,5 C 81 % 1014,8 hPa 1,8 l/m 0,0 km/h N 14,2 C 17,5 C 1,6 km/h
01.08.2011 16:00 18,6 C 81 % 1014,6 hPa 0,0 l/m 0,7 km/h N 15,2 C 18,6 C 6,8 km/h
01.08.2011 17:00 19,9 C 81 % 1014,4 hPa 0,3 l/m 0,2 km/h N 16,5 C 19,9 C 2,8 km/h
01.08.2011 18:00 20,2 C 79 % 1014,4 hPa 0,0 l/m 0,9 km/h N 16,4 C 20,2 C 5,2 km/h
01.08.2011 19:00 20,1 C 77 % 1014,5 hPa 0,0 l/m 1,4 km/h N-NO 16,0 C 20,1 C 6,4 km/h
01.08.2011 20:00 19,7 C 78 % 1015,0 hPa 0,0 l/m 0,4 km/h N 15,7 C 19,7 C 3,2 km/h
01.08.2011 21:00 19,0 C 80 % 1015,7 hPa 0,0 l/m 0,0 km/h N 15,4 C 19,0 C 0,8 km/h
01.08.2011 22:00 18,5 C 81 % 1015,9 hPa 0,0 l/m 0,0 km/h N 15,1 C 18,5 C 0,4 km/h
01.08.2011 23:00 18,2 C 81 % 1015,8 hPa 0,0 l/m 0,0 km/h N 14,9 C 18,2 C 0,8 km/h
02.08.2011 00:00 18,1 C 81 % 1016,0 hPa 0,0 l/m 0,0 km/h N 14,8 C 18,1 C 0,4 km/h
02.08.2011 01:00 18,0 C 81 % 1016,1 hPa 0,0 l/m 0,1 km/h N 14,7 C 18,0 C 1,6 km/h
02.08.2011 02:00 17,8 C 81 % 1016,2 hPa 0,0 l/m 0,1 km/h N 14,5 C 17,8 C 1,6 km/h
02.08.2011 03:00 17,6 C 81 % 1016,3 hPa 0,0 l/m 0,0 km/h N 14,3 C 17,6 C 1,6 km/h
02.08.2011 04:00 16,9 C 82 % 1016,5 hPa 0,0 l/m 0,0 km/h N 13,7 C 16,9 C 0,4 km/h
02.08.2011 05:00 16,8 C 82 % 1016,6 hPa 0,0 l/m 0,0 km/h N 13,7 C 16,8 C 0,8 km/h
02.08.2011 06:00 17,0 C 82 % 1016,8 hPa 0,0 l/m 0,1 km/h N 13,9 C 17,0 C 2,4 km/h
02.08.2011 07:00 17,7 C 82 % 1016,8 hPa 0,0 l/m 0,2 km/h N 14,6 C 17,7 C 2,4 km/h
02.08.2011 08:00 19,0 C 80 % 1017,0 hPa 0,0 l/m 0,8 km/h W 15,4 C 19,0 C 5,6 km/h
02.08.2011 09:00 20,3 C 77 % 1017,3 hPa 0,0 l/m 1,5 km/h S-SW 16,1 C 20,3 C 6,4 km/h
02.08.2011 10:00 22,3 C 71 % 1017,3 hPa 0,0 l/m 1,2 km/h N-NW 16,7 C 22,3 C 8,4 km/h
02.08.2011 11:00 24,8 C 62 % 1017,3 hPa 0,0 l/m 0,7 km/h N 17,0 C 24,8 C 4,8 km/h
02.08.2011 12:00 26,3 C 58 % 1017,4 hPa 0,0 l/m 1,4 km/h N-NO 17,4 C 26,3 C 5,2 km/h
02.08.2011 13:00 26,5 C 56 % 1017,4 hPa 0,0 l/m 0,7 km/h N 17,1 C 26,5 C 4,4 km/h
02.08.2011 14:00 28,3 C 52 % 1017,1 hPa 0,0 l/m 1,1 km/h N-NW 17,3 C 28,3 C 5,6 km/h
02.08.2011 15:00 30,0 C 46 % 1016,7 hPa 0,0 l/m 0,8 km/h N 17,1 C 30,0 C 4,8 km/h
02.08.2011 16:00 30,4 C 45 % 1016,5 hPa 0,0 l/m 0,9 km/h N-NO 17,2 C 30,4 C 5,6 km/h
02.08.2011 17:00 31,1 C 44 % 1016,2 hPa 0,0 l/m 0,6 km/h N 17,2 C 31,1 C 4,4 km/h
02.08.2011 18:00 30,5 C 43 % 1016,1 hPa 0,0 l/m 0,8 km/h N-NW 16,5 C 30,5 C 5,6 km/h
02.08.2011 19:00 27,6 C 48 % 1016,3 hPa 0,0 l/m 0,6 km/h N 15,4 C 27,6 C 3,6 km/h
02.08.2011 20:00 25,2 C 55 % 1016,8 hPa 0,0 l/m 0,0 km/h N 15,5 C 25,2 C 0,8 km/h
02.08.2011 21:00 22,3 C 66 % 1017,5 hPa 0,0 l/m 0,0 km/h N 15,5 C 22,3 C 1,2 km/h
02.08.2011 22:00 20,1 C 72 % 1017,8 hPa 0,0 l/m 0,0 km/h N 14,8 C 20,1 C 0,4 km/h
02.08.2011 23:00 18,7 C 77 % 1018,0 hPa 0,0 l/m 0,0 km/h N 14,5 C 18,7 C 2,0 km/h
03.08.2011 00:00 17,8 C 80 % 1018,1 hPa 0,0 l/m 0,0 km/h N 14,2 C 17,8 C 1,2 km/h
03.08.2011 01:00 17,1 C 81 % 1017,9 hPa 0,0 l/m 0,0 km/h N 13,8 C 17,1 C 0,0 km/h
03.08.2011 02:00 16,5 C 82 % 1017,6 hPa 0,0 l/m 0,0 km/h N 13,3 C 16,5 C 0,4 km/h
03.08.2011 03:00 15,9 C 82 % 1017,5 hPa 0,0 l/m 0,0 km/h N 12,8 C 15,9 C 0,8 km/h
03.08.2011 04:00 15,2 C 82 % 1017,5 hPa 0,0 l/m 0,0 km/h N 12,1 C 15,2 C 0,0 km/h
03.08.2011 05:00 14,8 C 82 % 1017,7 hPa 0,0 l/m 0,0 km/h N 11,8 C 14,8 C 1,2 km/h
03.08.2011 06:00 14,6 C 81 % 1017,9 hPa 0,0 l/m 0,0 km/h N 11,4 C 14,6 C 0,8 km/h
03.08.2011 07:00 15,5 C 80 % 1018,0 hPa 0,0 l/m 0,0 km/h N 12,1 C 15,5 C 0,0 km/h
03.08.2011 08:00 16,8 C 80 % 1018,3 hPa 0,0 l/m 0,1 km/h N 13,4 C 16,8 C 2,0 km/h
03.08.2011 09:00 18,8 C 81 % 1018,3 hPa 0,0 l/m 0,2 km/h N 15,4 C 18,8 C 2,4 km/h
03.08.2011 10:00 21,7 C 73 % 1018,1 hPa 0,0 l/m 0,3 km/h N 16,5 C 21,7 C 3,2 km/h
03.08.2011 11:00 25,9 C 58 % 1017,7 hPa 0,0 l/m 0,2 km/h N 17,0 C 25,9 C 2,4 km/h
03.08.2011 12:00 28,0 C 51 % 1017,4 hPa 0,0 l/m 0,4 km/h N 17,0 C 28,0 C 3,2 km/h
03.08.2011 13:00 29,3 C 51 % 1016,8 hPa 0,0 l/m 0,9 km/h N 18,1 C 29,3 C 5,6 km/h
03.08.2011 14:00 29,8 C 50 % 1016,2 hPa 0,0 l/m 0,7 km/h N 18,2 C 29,8 C 5,2 km/h
03.08.2011 15:00 29,9 C 49 % 1015,6 hPa 0,0 l/m 0,5 km/h N 17,8 C 29,9 C 4,8 km/h
03.08.2011 16:00 29,9 C 48 % 1015,0 hPa 0,0 l/m 0,6 km/h O 17,7 C 29,9 C 4,4 km/h
03.08.2011 17:00 29,1 C 49 % 1014,8 hPa 0,0 l/m 0,3 km/h N 17,2 C 29,1 C 3,2 km/h
03.08.2011 18:00 29,5 C 47 % 1014,4 hPa 0,0 l/m 0,2 km/h N 17,0 C 29,5 C 2,0 km/h
03.08.2011 19:00 27,7 C 51 % 1014,3 hPa 0,0 l/m 0,0 km/h N 16,7 C 27,7 C 1,2 km/h
03.08.2011 20:00 25,9 C 60 % 1014,3 hPa 0,0 l/m 0,0 km/h N 17,3 C 25,9 C 0,0 km/h
03.08.2011 21:00 23,7 C 67 % 1014,7 hPa 0,0 l/m 0,0 km/h N 17,1 C 23,7 C 0,0 km/h
03.08.2011 22:00 22,5 C 72 % 1014,8 hPa 0,0 l/m 0,0 km/h N 17,2 C 22,5 C 0,0 km/h
03.08.2011 23:00 21,9 C 75 % 1014,4 hPa 0,0 l/m 0,0 km/h N 17,3 C 21,9 C 0,4 km/h
04.08.2011 00:00 21,3 C 77 % 1014,3 hPa 0,0 l/m 0,1 km/h N 17,0 C 21,3 C 0,8 km/h
04.08.2011 01:00 21,2 C 77 % 1014,2 hPa 0,0 l/m 0,2 km/h N 17,1 C 21,2 C 2,4 km/h
04.08.2011 02:00 21,2 C 79 % 1014,2 hPa 0,0 l/m 0,1 km/h N 17,3 C 21,2 C 2,0 km/h
04.08.2011 03:00 20,6 C 81 % 1014,2 hPa 0,0 l/m 0,0 km/h N 17,2 C 20,6 C 0,8 km/h
04.08.2011 04:00 19,9 C 81 % 1014,3 hPa 1,3 l/m 0,5 km/h SW 16,5 C 19,9 C 3,6 km/h
04.08.2011 05:00 18,6 C 81 % 1014,4 hPa 3,1 l/m 1,7 km/h S 15,3 C 18,6 C 9,6 km/h
04.08.2011 06:00 18,0 C 81 % 1014,4 hPa 2,9 l/m 1,7 km/h W-SW 14,7 C 18,0 C 9,3 km/h
04.08.2011 07:00 17,8 C 81 % 1014,7 hPa 0,5 l/m 0,4 km/h N 14,5 C 17,8 C 5,2 km/h
04.08.2011 08:00 17,9 C 81 % 1014,8 hPa 0,5 l/m 0,7 km/h W-SW 14,6 C 17,9 C 6,0 km/h
04.08.2011 09:00 18,2 C 81 % 1015,3 hPa 0,3 l/m 0,8 km/h S-SW 14,8 C 18,2 C 7,2 km/h
04.08.2011 10:00 18,4 C 81 % 1015,4 hPa 0,5 l/m 1,0 km/h S-SW 15,1 C 18,4 C 8,0 km/h
04.08.2011 11:00 18,8 C 81 % 1015,5 hPa 0,8 l/m 0,3 km/h N 15,5 C 18,8 C 4,8 km/h
04.08.2011 12:00 19,2 C 81 % 1015,5 hPa 0,5 l/m 0,3 km/h N 15,9 C 19,2 C 4,0 km/h
04.08.2011 13:00 20,4 C 81 % 1015,2 hPa 0,0 l/m 1,1 km/h SW 17,0 C 20,4 C 4,8 km/h
04.08.2011 14:00 21,9 C 78 % 1015,0 hPa 0,0 l/m 1,0 km/h S 17,8 C 21,9 C 8,9 km/h
04.08.2011 15:00 23,1 C 72 % 1014,8 hPa 0,0 l/m 1,0 km/h N 17,8 C 23,1 C 4,8 km/h
04.08.2011 16:00 23,5 C 70 % 1014,7 hPa 0,0 l/m 0,0 km/h N 17,7 C 23,5 C 1,2 km/h
04.08.2011 17:00 23,5 C 69 % 1014,5 hPa 0,0 l/m 0,3 km/h N 17,4 C 23,5 C 4,0 km/h
04.08.2011 18:00 23,4 C 70 % 1014,5 hPa 0,0 l/m 0,2 km/h N 17,7 C 23,4 C 3,2 km/h
04.08.2011 19:00 22,7 C 75 % 1014,9 hPa 0,0 l/m 0,1 km/h N 17,9 C 22,7 C 2,8 km/h
04.08.2011 20:00 21,8 C 78 % 1015,0 hPa 0,0 l/m 0,0 km/h N 17,7 C 21,8 C 0,4 km/h
04.08.2011 21:00 20,8 C 80 % 1015,3 hPa 0,0 l/m 0,0 km/h N 17,2 C 20,8 C 0,0 km/h
04.08.2011 22:00 19,6 C 81 % 1015,5 hPa 0,0 l/m 0,0 km/h N 16,2 C 19,6 C 0,0 km/h
04.08.2011 23:00 18,5 C 81 % 1015,5 hPa 0,0 l/m 0,0 km/h N 15,2 C 18,5 C 0,0 km/h
05.08.2011 00:00 17,5 C 81 % 1015,4 hPa 0,0 l/m 0,0 km/h N 14,2 C 17,5 C 0,0 km/h
05.08.2011 01:00 16,6 C 81 % 1015,1 hPa 0,0 l/m 0,0 km/h N 13,4 C 16,6 C 0,4 km/h
05.08.2011 02:00 15,9 C 81 % 1015,0 hPa 0,0 l/m 0,0 km/h N 12,7 C 15,9 C 0,0 km/h
05.08.2011 03:00 15,5 C 81 % 1015,0 hPa 0,0 l/m 0,0 km/h N 12,3 C 15,5 C 0,0 km/h
05.08.2011 04:00 15,3 C 81 % 1015,1 hPa 0,0 l/m 0,0 km/h N 12,0 C 15,3 C 0,0 km/h
05.08.2011 05:00 15,2 C 80 % 1015,3 hPa 0,0 l/m 0,0 km/h N 11,8 C 15,2 C 0,4 km/h
05.08.2011 06:00 15,1 C 80 % 1015,5 hPa 0,0 l/m 0,0 km/h N 11,7 C 15,1 C 0,4 km/h
05.08.2011 07:00 16,0 C 79 % 1015,6 hPa 0,3 l/m 0,0 km/h N 12,3 C 16,0 C 1,2 km/h
05.08.2011 08:00 17,3 C 78 % 1015,4 hPa 0,0 l/m 0,0 km/h N 13,3 C 17,3 C 0,0 km/h
05.08.2011 09:00 18,8 C 77 % 1015,4 hPa 0,0 l/m 0,0 km/h N 14,7 C 18,8 C 1,2 km/h
05.08.2011 10:00 21,7 C 77 % 1015,2 hPa 0,0 l/m 0,2 km/h S-SW 17,3 C 21,7 C 2,4 km/h
05.08.2011 11:00 25,7 C 62 % 1014,8 hPa 0,0 l/m 0,5 km/h S 17,8 C 25,7 C 4,8 km/h
05.08.2011 12:00 27,9 C 56 % 1014,5 hPa 0,0 l/m 0,9 km/h N 18,1 C 27,9 C 5,2 km/h
05.08.2011 13:00 27,3 C 56 % 1014,2 hPa 0,0 l/m 0,3 km/h N 17,7 C 27,3 C 2,8 km/h
05.08.2011 14:00 28,5 C 55 % 1013,8 hPa 0,0 l/m 0,2 km/h N 18,7 C 28,5 C 2,8 km/h
05.08.2011 15:00 29,6 C 53 % 1013,4 hPa 0,0 l/m 0,5 km/h S 19,0 C 29,6 C 4,8 km/h
05.08.2011 16:00 30,2 C 51 % 1013,0 hPa 0,0 l/m 1,6 km/h W-SW 18,8 C 30,2 C 10,1 km/h
05.08.2011 17:00 30,3 C 51 % 1012,5 hPa 0,0 l/m 1,1 km/h S-SW 19,0 C 30,3 C 7,6 km/h
05.08.2011 18:00 29,9 C 51 % 1012,2 hPa 0,0 l/m 0,3 km/h N 18,6 C 29,9 C 3,6 km/h
05.08.2011 19:00 27,9 C 54 % 1012,2 hPa 0,0 l/m 0,3 km/h N 17,7 C 27,9 C 4,8 km/h
05.08.2011 20:00 25,6 C 61 % 1012,2 hPa 0,0 l/m 0,0 km/h N 17,5 C 25,6 C 0,0 km/h
05.08.2011 21:00 23,1 C 70 % 1012,6 hPa 0,0 l/m 0,0 km/h N 17,3 C 23,1 C 0,0 km/h
05.08.2011 22:00 21,2 C 77 % 1012,6 hPa 0,0 l/m 0,0 km/h N 16,9 C 21,2 C 0,0 km/h
05.08.2011 23:00 20,2 C 80 % 1012,3 hPa 0,0 l/m 0,0 km/h N 16,6 C 20,2 C 0,0 km/h
06.08.2011 00:00 19,8 C 81 % 1012,0 hPa 0,0 l/m 0,0 km/h N 16,5 C 19,8 C 0,0 km/h
06.08.2011 01:00 19,7 C 81 % 1012,0 hPa 0,0 l/m 0,0 km/h N 16,4 C 19,7 C 0,0 km/h
06.08.2011 02:00 19,5 C 81 % 1011,5 hPa 0,0 l/m 0,0 km/h N 16,1 C 19,5 C 0,0 km/h
06.08.2011 03:00 19,1 C 81 % 1011,2 hPa 0,0 l/m 0,0 km/h N 15,7 C 19,1 C 0,0 km/h
06.08.2011 04:00 18,8 C 81 % 1010,9 hPa 0,0 l/m 0,0 km/h N 15,5 C 18,8 C 0,0 km/h
06.08.2011 05:00 18,5 C 81 % 1011,0 hPa 0,0 l/m 0,0 km/h N 15,2 C 18,5 C 0,0 km/h
06.08.2011 06:00 18,1 C 81 % 1010,9 hPa 0,0 l/m 0,0 km/h N 14,7 C 18,1 C 0,0 km/h
06.08.2011 07:00 18,6 C 80 % 1010,9 hPa 0,0 l/m 0,0 km/h N 15,1 C 18,6 C 0,0 km/h
06.08.2011 08:00 19,6 C 80 % 1010,8 hPa 0,0 l/m 0,0 km/h N 16,0 C 19,6 C 0,0 km/h
06.08.2011 09:00 20,6 C 81 % 1010,8 hPa 0,0 l/m 0,0 km/h N 17,2 C 20,6 C 0,0 km/h
06.08.2011 10:00 22,0 C 80 % 1010,7 hPa 0,0 l/m 0,1 km/h N 18,4 C 22,0 C 1,2 km/h
06.08.2011 11:00 23,6 C 71 % 1010,6 hPa 0,0 l/m 0,5 km/h S 18,0 C 23,6 C 9,3 km/h
06.08.2011 12:00 26,2 C 63 % 1010,2 hPa 0,0 l/m 0,7 km/h N 18,5 C 26,2 C 6,4 km/h
06.08.2011 13:00 27,9 C 56 % 1009,5 hPa 0,0 l/m 1,3 km/h SO 18,2 C 27,9 C 10,1 km/h
06.08.2011 14:00 27,9 C 57 % 1008,8 hPa 0,0 l/m 0,6 km/h W 18,6 C 27,9 C 7,6 km/h
06.08.2011 15:00 28,0 C 57 % 1008,4 hPa 0,0 l/m 0,6 km/h N 18,6 C 28,0 C 8,0 km/h
06.08.2011 16:00 28,5 C 56 % 1008,0 hPa 0,0 l/m 0,8 km/h SO 18,7 C 28,5 C 7,2 km/h
06.08.2011 17:00 28,8 C 53 % 1007,5 hPa 0,0 l/m 3,0 km/h SW 18,3 C 28,8 C 16,1 km/h
06.08.2011 18:00 28,0 C 54 % 1007,1 hPa 0,0 l/m 2,9 km/h SW 17,9 C 28,0 C 16,5 km/h
06.08.2011 19:00 26,2 C 61 % 1006,9 hPa 0,0 l/m 0,8 km/h N 17,9 C 26,2 C 7,6 km/h
06.08.2011 20:00 24,9 C 65 % 1006,7 hPa 0,0 l/m 0,8 km/h S 17,7 C 24,9 C 8,9 km/h
06.08.2011 21:00 23,5 C 71 % 1006,7 hPa 0,0 l/m 0,2 km/h N 18,0 C 23,5 C 4,4 km/h
06.08.2011 22:00 22,4 C 76 % 1006,4 hPa 0,0 l/m 0,3 km/h N 17,9 C 22,4 C 4,8 km/h
06.08.2011 23:00 21,5 C 79 % 1006,2 hPa 0,0 l/m 0,0 km/h N 17,6 C 21,5 C 0,8 km/h
07.08.2011 00:00 20,5 C 81 % 1006,0 hPa 0,0 l/m 0,0 km/h N 17,1 C 20,5 C 0,8 km/h
07.08.2011 01:00 19,5 C 81 % 1005,5 hPa 0,0 l/m 0,0 km/h N 16,2 C 19,5 C 0,0 km/h
07.08.2011 02:00 18,7 C 81 % 1005,2 hPa 0,0 l/m 0,0 km/h N 15,3 C 18,7 C 0,0 km/h
07.08.2011 03:00 18,1 C 81 % 1005,1 hPa 0,0 l/m 0,0 km/h N 14,8 C 18,1 C 0,0 km/h
07.08.2011 04:00 17,4 C 81 % 1004,7 hPa 0,0 l/m 0,0 km/h N 14,1 C 17,4 C 0,0 km/h
07.08.2011 05:00 17,0 C 81 % 1004,9 hPa 0,0 l/m 0,0 km/h N 13,7 C 17,0 C 1,2 km/h
07.08.2011 06:00 16,7 C 80 % 1005,0 hPa 0,0 l/m 0,0 km/h N 13,3 C 16,7 C 0,0 km/h
07.08.2011 07:00 17,4 C 79 % 1005,2 hPa 0,0 l/m 0,0 km/h N 13,8 C 17,4 C 0,0 km/h
07.08.2011 08:00 19,3 C 77 % 1005,5 hPa 0,0 l/m 0,3 km/h N 15,2 C 19,3 C 1,6 km/h
07.08.2011 09:00 20,5 C 78 % 1005,7 hPa 0,0 l/m 0,1 km/h N 16,6 C 20,5 C 1,2 km/h
07.08.2011 10:00 21,9 C 80 % 1005,7 hPa 0,0 l/m 0,8 km/h NO 18,3 C 21,9 C 4,0 km/h
07.08.2011 11:00 24,9 C 75 % 1006,1 hPa 0,0 l/m 2,1 km/h N-NW 20,1 C 24,9 C 7,6 km/h
07.08.2011 12:00 29,6 C 58 % 1005,7 hPa 0,0 l/m 2,5 km/h N-NW 20,4 C 29,6 C 8,9 km/h
07.08.2011 13:00 32,6 C 47 % 1005,6 hPa 0,0 l/m 4,8 km/h N-NO 19,6 C 32,6 C 14,9 km/h
07.08.2011 14:00 33,2 C 45 % 1005,4 hPa 0,0 l/m 4,3 km/h N-NW 19,6 C 33,2 C 16,5 km/h
07.08.2011 15:00 30,0 C 49 % 1006,0 hPa 0,0 l/m 5,7 km/h N-NW 18,1 C 30,0 C 20,9 km/h
07.08.2011 16:00 26,1 C 60 % 1007,1 hPa 0,0 l/m 6,8 km/h N-NW 17,7 C 26,0 C 23,0 km/h
07.08.2011 17:00 21,0 C 77 % 1008,3 hPa 2,9 l/m 2,9 km/h SO 16,8 C 21,0 C 16,1 km/h
07.08.2011 18:00 19,2 C 81 % 1009,0 hPa 1,0 l/m 1,0 km/h SW 15,9 C 19,2 C 7,6 km/h
07.08.2011 19:00 18,5 C 81 % 1009,3 hPa 2,1 l/m 0,2 km/h N 15,2 C 18,5 C 3,6 km/h
07.08.2011 20:00 18,0 C 81 % 1009,5 hPa 0,0 l/m 0,0 km/h N 14,6 C 18,0 C 1,6 km/h
07.08.2011 21:00 17,7 C 81 % 1009,6 hPa 0,0 l/m 0,0 km/h N 14,4 C 17,7 C 1,2 km/h
07.08.2011 22:00 17,6 C 81 % 1009,4 hPa 0,0 l/m 0,0 km/h N 14,2 C 17,6 C 1,2 km/h
07.08.2011 23:00 17,4 C 80 % 1009,7 hPa 0,3 l/m 0,0 km/h N 13,9 C 17,4 C 1,2 km/h
Min-Datum _ 03.08.11 02.08.11 07.08.11 - 01.08.11 - 03.08.11 03.08.11 01.08.11
_ Min-Zeit 06:15 18:00 04:30 - 14:00 - 06:15 06:00 15:15
Minimum _ 14,6 C 41 % 1004,5 hPa - 0,0 km/h - 11,4 C 14,6 C 0,0 km/h
Max-Datum _ 07.08.11 01.08.11 03.08.11 04.08.11 07.08.11 - 07.08.11 07.08.11 06.08.11
_ Max-Zeit 14:45 05:45 08:30 05:00 16:30 - 12:15 14:30 17:30
Maximum _ 33,6 C 82 % 1018,4 hPa 3,1 l/m 9,5 km/h
N-NW
- 20,9 C 33,5 C 29,0 km/h
S
Durchschnitt _ 21,4 C 72 % 1013,3 hPa #22,9 l/m 0,6 km/h N-NW 15,8 C 21,4 C 4,0 km/h